sensor_id;sensor_type;location;lat;lon;timestamp;pressure;altitude;pressure_sealevel;temperature
6454;BMP180;3260;52.438;13.502;2022-08-11T04:03:49;101768.00;;;18.60
6454;BMP180;3260;52.438;13.502;2022-08-11T04:07:17;101765.00;;;18.50
6454;BMP180;3260;52.438;13.502;2022-08-11T04:10:31;101753.00;;;18.60
6454;BMP180;3260;52.438;13.502;2022-08-11T04:13:48;101758.00;;;18.90
6454;BMP180;3260;52.438;13.502;2022-08-11T04:16:57;101757.00;;;18.80
6454;BMP180;3260;52.438;13.502;2022-08-11T04:20:15;101755.00;;;18.70
6454;BMP180;3260;52.438;13.502;2022-08-11T04:23:01;101766.00;;;18.80
6454;BMP180;3260;52.438;13.502;2022-08-11T04:26:11;101763.00;;;18.90
6454;BMP180;3260;52.438;13.502;2022-08-11T04:29:02;101764.00;;;19.00
6454;BMP180;3260;52.438;13.502;2022-08-11T04:31:58;101775.00;;;18.90
6454;BMP180;3260;52.438;13.502;2022-08-11T04:34:50;101768.00;;;19.10
6454;BMP180;3260;52.438;13.502;2022-08-11T04:38:00;101763.00;;;19.10
6454;BMP180;3260;52.438;13.502;2022-08-11T04:44:31;101774.00;;;19.40
6454;BMP180;3260;52.438;13.502;2022-08-11T04:47:47;101776.00;;;19.50
6454;BMP180;3260;52.438;13.502;2022-08-11T04:51:04;101771.00;;;19.70
6454;BMP180;3260;52.438;13.502;2022-08-11T04:54:04;101774.00;;;19.80
6454;BMP180;3260;52.438;13.502;2022-08-11T04:57:03;101773.00;;;19.90
6454;BMP180;3260;52.438;13.502;2022-08-11T05:00:07;101776.00;;;19.90
6454;BMP180;3260;52.438;13.502;2022-08-11T05:06:56;101780.00;;;20.40
6454;BMP180;3260;52.438;13.502;2022-08-11T05:09:50;101792.00;;;20.40
6454;BMP180;3260;52.438;13.502;2022-08-11T05:12:41;101787.00;;;20.50
6454;BMP180;3260;52.438;13.502;2022-08-11T05:15:50;101783.00;;;20.60
6454;BMP180;3260;52.438;13.502;2022-08-11T05:18:45;101784.00;;;20.80
6454;BMP180;3260;52.438;13.502;2022-08-11T05:21:34;101786.00;;;21.00
6454;BMP180;3260;52.438;13.502;2022-08-11T05:24:29;101792.00;;;21.10
6454;BMP180;3260;52.438;13.502;2022-08-11T05:27:19;101795.00;;;21.20
6454;BMP180;3260;52.438;13.502;2022-08-11T05:30:09;101797.00;;;21.30
6454;BMP180;3260;52.438;13.502;2022-08-11T05:33:09;101790.00;;;21.50
6454;BMP180;3260;52.438;13.502;2022-08-11T05:36:07;101804.00;;;21.70
6454;BMP180;3260;52.438;13.502;2022-08-11T05:38:39;101795.00;;;21.80
6454;BMP180;3260;52.438;13.502;2022-08-11T05:41:34;101799.00;;;22.10
6454;BMP180;3260;52.438;13.502;2022-08-11T05:44:21;101795.00;;;22.10
6454;BMP180;3260;52.438;13.502;2022-08-11T05:47:08;101800.00;;;22.20
6454;BMP180;3260;52.438;13.502;2022-08-11T05:49:54;101802.00;;;22.40
6454;BMP180;3260;52.438;13.502;2022-08-11T05:52:45;101798.00;;;22.30
6454;BMP180;3260;52.438;13.502;2022-08-11T05:55:40;101808.00;;;22.10
6454;BMP180;3260;52.438;13.502;2022-08-11T05:58:34;101801.00;;;21.90
6454;BMP180;3260;52.438;13.502;2022-08-11T06:01:12;101808.00;;;22.20
6454;BMP180;3260;52.438;13.502;2022-08-11T06:03:43;101807.00;;;22.60
6454;BMP180;3260;52.438;13.502;2022-08-11T06:06:30;101806.00;;;22.20
6454;BMP180;3260;52.438;13.502;2022-08-11T06:09:00;101815.00;;;22.30
6454;BMP180;3260;52.438;13.502;2022-08-11T06:11:28;101814.00;;;22.80
6454;BMP180;3260;52.438;13.502;2022-08-11T06:14:11;101812.00;;;22.90
6454;BMP180;3260;52.438;13.502;2022-08-11T06:16:47;101812.00;;;22.50
6454;BMP180;3260;52.438;13.502;2022-08-11T06:19:19;101822.00;;;22.80
6454;BMP180;3260;52.438;13.502;2022-08-11T06:21:49;101817.00;;;23.00
6454;BMP180;3260;52.438;13.502;2022-08-11T06:24:19;101819.00;;;22.80
6454;BMP180;3260;52.438;13.502;2022-08-11T06:26:51;101818.00;;;23.00
6454;BMP180;3260;52.438;13.502;2022-08-11T06:29:49;101817.00;;;23.00
6454;BMP180;3260;52.438;13.502;2022-08-11T06:32:27;101823.00;;;23.40
6454;BMP180;3260;52.438;13.502;2022-08-11T06:35:09;101813.00;;;22.80
6454;BMP180;3260;52.438;13.502;2022-08-11T06:37:56;101813.00;;;23.20
6454;BMP180;3260;52.438;13.502;2022-08-11T06:40:37;101819.00;;;23.50
6454;BMP180;3260;52.438;13.502;2022-08-11T06:43:17;101823.00;;;23.80
6454;BMP180;3260;52.438;13.502;2022-08-11T06:45:56;101820.00;;;24.00
6454;BMP180;3260;52.438;13.502;2022-08-11T06:48:32;101820.00;;;23.80
6454;BMP180;3260;52.438;13.502;2022-08-11T06:51:04;101827.00;;;24.10
6454;BMP180;3260;52.438;13.502;2022-08-11T06:53:43;101820.00;;;24.20
6454;BMP180;3260;52.438;13.502;2022-08-11T06:56:34;101825.00;;;24.40
6454;BMP180;3260;52.438;13.502;2022-08-11T06:59:42;101826.00;;;24.30
6454;BMP180;3260;52.438;13.502;2022-08-11T07:02:32;101819.00;;;24.40
6454;BMP180;3260;52.438;13.502;2022-08-11T07:05:12;101816.00;;;24.50
6454;BMP180;3260;52.438;13.502;2022-08-11T07:12:00;101816.00;;;24.10
6454;BMP180;3260;52.438;13.502;2022-08-11T07:14:51;101813.00;;;24.40
6454;BMP180;3260;52.438;13.502;2022-08-11T07:17:43;101812.00;;;25.20
6454;BMP180;3260;52.438;13.502;2022-08-11T07:20:19;101811.00;;;24.80
6454;BMP180;3260;52.438;13.502;2022-08-11T07:23:08;101808.00;;;25.20
6454;BMP180;3260;52.438;13.502;2022-08-11T07:25:58;101802.00;;;25.10
6454;BMP180;3260;52.438;13.502;2022-08-11T07:28:48;101806.00;;;25.30
6454;BMP180;3260;52.438;13.502;2022-08-11T07:31:30;101799.00;;;24.70
6454;BMP180;3260;52.438;13.502;2022-08-11T07:34:11;101802.00;;;25.00
6454;BMP180;3260;52.438;13.502;2022-08-11T07:36:51;101807.00;;;25.50
6454;BMP180;3260;52.438;13.502;2022-08-11T07:39:23;101796.00;;;25.40
6454;BMP180;3260;52.438;13.502;2022-08-11T07:41:56;101803.00;;;25.50
6454;BMP180;3260;52.438;13.502;2022-08-11T07:44:27;101799.00;;;25.00
6454;BMP180;3260;52.438;13.502;2022-08-11T07:47:02;101804.00;;;25.20
6454;BMP180;3260;52.438;13.502;2022-08-11T07:49:52;101803.00;;;25.80
6454;BMP180;3260;52.438;13.502;2022-08-11T07:52:40;101806.00;;;25.40
6454;BMP180;3260;52.438;13.502;2022-08-11T07:55:14;101811.00;;;26.00
6454;BMP180;3260;52.438;13.502;2022-08-11T07:57:45;101794.00;;;26.10
6454;BMP180;3260;52.438;13.502;2022-08-11T08:00:49;101806.00;;;26.20
6454;BMP180;3260;52.438;13.502;2022-08-11T08:03:42;101806.00;;;26.20
6454;BMP180;3260;52.438;13.502;2022-08-11T08:06:31;101805.00;;;26.60
6454;BMP180;3260;52.438;13.502;2022-08-11T08:09:20;101799.00;;;26.00
6454;BMP180;3260;52.438;13.502;2022-08-11T08:12:08;101804.00;;;26.50
6454;BMP180;3260;52.438;13.502;2022-08-11T08:14:55;101795.00;;;27.00
6454;BMP180;3260;52.438;13.502;2022-08-11T08:17:43;101792.00;;;27.00
6454;BMP180;3260;52.438;13.502;2022-08-11T08:20:46;101799.00;;;27.00
6454;BMP180;3260;52.438;13.502;2022-08-11T08:23:16;101801.00;;;26.60
6454;BMP180;3260;52.438;13.502;2022-08-11T08:26:03;101806.00;;;26.50
6454;BMP180;3260;52.438;13.502;2022-08-11T08:28:54;101799.00;;;26.60
6454;BMP180;3260;52.438;13.502;2022-08-11T08:31:45;101797.00;;;27.00
6454;BMP180;3260;52.438;13.502;2022-08-11T08:34:13;101802.00;;;27.60
6454;BMP180;3260;52.438;13.502;2022-08-11T08:36:43;101797.00;;;27.90
6454;BMP180;3260;52.438;13.502;2022-08-11T08:39:13;101802.00;;;28.10
6454;BMP180;3260;52.438;13.502;2022-08-11T08:41:44;101802.00;;;28.60
6454;BMP180;3260;52.438;13.502;2022-08-11T08:44:14;101803.00;;;28.60
6454;BMP180;3260;52.438;13.502;2022-08-11T08:47:06;101799.00;;;28.50
6454;BMP180;3260;52.438;13.502;2022-08-11T08:49:39;101799.00;;;28.80
6454;BMP180;3260;52.438;13.502;2022-08-11T08:52:17;101797.00;;;28.80
6454;BMP180;3260;52.438;13.502;2022-08-11T08:55:04;101796.00;;;28.10
6454;BMP180;3260;52.438;13.502;2022-08-11T08:57:36;101803.00;;;28.20
6454;BMP180;3260;52.438;13.502;2022-08-11T09:00:07;101794.00;;;28.80
6454;BMP180;3260;52.438;13.502;2022-08-11T09:02:41;101802.00;;;28.90
6454;BMP180;3260;52.438;13.502;2022-08-11T09:05:10;101789.00;;;28.70
6454;BMP180;3260;52.438;13.502;2022-08-11T09:07:39;101787.00;;;28.20
6454;BMP180;3260;52.438;13.502;2022-08-11T09:10:10;101792.00;;;28.00
6454;BMP180;3260;52.438;13.502;2022-08-11T09:12:40;101786.00;;;27.80
6454;BMP180;3260;52.438;13.502;2022-08-11T09:15:11;101785.00;;;28.30
6454;BMP180;3260;52.438;13.502;2022-08-11T09:17:47;101784.00;;;28.40
6454;BMP180;3260;52.438;13.502;2022-08-11T09:20:20;101789.00;;;29.00
6454;BMP180;3260;52.438;13.502;2022-08-11T09:22:54;101792.00;;;29.10
6454;BMP180;3260;52.438;13.502;2022-08-11T09:26:01;101790.00;;;29.30
6454;BMP180;3260;52.438;13.502;2022-08-11T09:28:51;101787.00;;;29.30
6454;BMP180;3260;52.438;13.502;2022-08-11T09:31:20;101786.00;;;29.70
6454;BMP180;3260;52.438;13.502;2022-08-11T09:33:53;101788.00;;;29.30
6454;BMP180;3260;52.438;13.502;2022-08-11T09:36:22;101778.00;;;28.90
6454;BMP180;3260;52.438;13.502;2022-08-11T09:39:11;101776.00;;;28.30
6454;BMP180;3260;52.438;13.502;2022-08-11T09:41:59;101760.00;;;28.70
6454;BMP180;3260;52.438;13.502;2022-08-11T09:44:33;101773.00;;;29.50
6454;BMP180;3260;52.438;13.502;2022-08-11T09:47:21;101775.00;;;30.00
6454;BMP180;3260;52.438;13.502;2022-08-11T09:49:55;101775.00;;;30.30
6454;BMP180;3260;52.438;13.502;2022-08-11T09:52:31;101773.00;;;30.60
6454;BMP180;3260;52.438;13.502;2022-08-11T09:55:01;101776.00;;;30.90
6454;BMP180;3260;52.438;13.502;2022-08-11T09:57:39;101782.00;;;31.50
6454;BMP180;3260;52.438;13.502;2022-08-11T10:00:31;101766.00;;;31.60
6454;BMP180;3260;52.438;13.502;2022-08-11T10:03:08;101759.00;;;31.10
6454;BMP180;3260;52.438;13.502;2022-08-11T10:05:37;101760.00;;;30.90
6454;BMP180;3260;52.438;13.502;2022-08-11T10:08:28;101759.00;;;31.10
6454;BMP180;3260;52.438;13.502;2022-08-11T10:10:59;101761.00;;;31.70
6454;BMP180;3260;52.438;13.502;2022-08-11T10:13:32;101750.00;;;32.30
6454;BMP180;3260;52.438;13.502;2022-08-11T10:16:43;101754.00;;;32.80
6454;BMP180;3260;52.438;13.502;2022-08-11T10:19:11;101750.00;;;33.30
6454;BMP180;3260;52.438;13.502;2022-08-11T10:21:43;101742.00;;;33.40
6454;BMP180;3260;52.438;13.502;2022-08-11T10:24:32;101749.00;;;33.40
6454;BMP180;3260;52.438;13.502;2022-08-11T10:27:19;101752.00;;;34.00
6454;BMP180;3260;52.438;13.502;2022-08-11T10:29:55;101755.00;;;34.40
6454;BMP180;3260;52.438;13.502;2022-08-11T10:32:42;101752.00;;;34.30
6454;BMP180;3260;52.438;13.502;2022-08-11T10:35:35;101756.00;;;34.20
6454;BMP180;3260;52.438;13.502;2022-08-11T10:38:04;101747.00;;;34.50
6454;BMP180;3260;52.438;13.502;2022-08-11T10:40:38;101752.00;;;33.90
6454;BMP180;3260;52.438;13.502;2022-08-11T10:43:08;101741.00;;;34.40
6454;BMP180;3260;52.438;13.502;2022-08-11T10:45:45;101745.00;;;35.00
6454;BMP180;3260;52.438;13.502;2022-08-11T10:48:43;101737.00;;;33.80
6454;BMP180;3260;52.438;13.502;2022-08-11T10:51:13;101712.00;;;33.40
6454;BMP180;3260;52.438;13.502;2022-08-11T10:53:44;101729.00;;;34.20
6454;BMP180;3260;52.438;13.502;2022-08-11T10:56:36;101711.00;;;34.00
6454;BMP180;3260;52.438;13.502;2022-08-11T10:59:25;101711.00;;;34.30
6454;BMP180;3260;52.438;13.502;2022-08-11T11:01:55;101713.00;;;34.40
6454;BMP180;3260;52.438;13.502;2022-08-11T11:04:38;101718.00;;;35.80
6454;BMP180;3260;52.438;13.502;2022-08-11T11:07:17;101708.00;;;36.40
6454;BMP180;3260;52.438;13.502;2022-08-11T11:09:56;101716.00;;;36.60
6454;BMP180;3260;52.438;13.502;2022-08-11T11:12:31;101715.00;;;37.30
6454;BMP180;3260;52.438;13.502;2022-08-11T11:15:22;101711.00;;;37.50
6454;BMP180;3260;52.438;13.502;2022-08-11T11:18:11;101719.00;;;38.90
6454;BMP180;3260;52.438;13.502;2022-08-11T11:20:47;101718.00;;;37.90
6454;BMP180;3260;52.438;13.502;2022-08-11T11:23:24;101711.00;;;38.60
6454;BMP180;3260;52.438;13.502;2022-08-11T11:26:34;101714.00;;;39.10
6454;BMP180;3260;52.438;13.502;2022-08-11T11:29:38;101692.00;;;38.30
6454;BMP180;3260;52.438;13.502;2022-08-11T11:32:19;101719.00;;;39.00
6454;BMP180;3260;52.438;13.502;2022-08-11T11:35:14;101709.00;;;39.80
6454;BMP180;3260;52.438;13.502;2022-08-11T11:37:48;101708.00;;;40.00
6454;BMP180;3260;52.438;13.502;2022-08-11T11:40:32;101705.00;;;40.20
6454;BMP180;3260;52.438;13.502;2022-08-11T11:43:01;101709.00;;;41.20
6454;BMP180;3260;52.438;13.502;2022-08-11T11:45:30;101705.00;;;41.30
6454;BMP180;3260;52.438;13.502;2022-08-11T11:48:00;101709.00;;;42.10
6454;BMP180;3260;52.438;13.502;2022-08-11T11:50:32;101705.00;;;42.00
6454;BMP180;3260;52.438;13.502;2022-08-11T11:53:05;101704.00;;;42.90
6454;BMP180;3260;52.438;13.502;2022-08-11T11:55:35;101697.00;;;43.50
6454;BMP180;3260;52.438;13.502;2022-08-11T11:58:05;101702.00;;;45.00
6454;BMP180;3260;52.438;13.502;2022-08-11T12:00:52;101695.00;;;45.10
6454;BMP180;3260;52.438;13.502;2022-08-11T12:03:39;101697.00;;;46.00
6454;BMP180;3260;52.438;13.502;2022-08-11T12:06:10;101697.00;;;47.30
6454;BMP180;3260;52.438;13.502;2022-08-11T12:08:42;101692.00;;;48.00
6454;BMP180;3260;52.438;13.502;2022-08-11T12:11:12;101693.00;;;48.70
6454;BMP180;3260;52.438;13.502;2022-08-11T12:14:01;101686.00;;;46.40
6454;BMP180;3260;52.438;13.502;2022-08-11T12:16:40;101685.00;;;48.70
6454;BMP180;3260;52.438;13.502;2022-08-11T12:19:11;101685.00;;;48.50
6454;BMP180;3260;52.438;13.502;2022-08-11T12:21:41;101682.00;;;49.70
6454;BMP180;3260;52.438;13.502;2022-08-11T12:24:34;101676.00;;;50.60
6454;BMP180;3260;52.438;13.502;2022-08-11T12:27:20;101676.00;;;50.50
6454;BMP180;3260;52.438;13.502;2022-08-11T12:29:58;101680.00;;;46.10
6454;BMP180;3260;52.438;13.502;2022-08-11T12:32:30;101676.00;;;47.40
6454;BMP180;3260;52.438;13.502;2022-08-11T12:34:59;101676.00;;;49.70
6454;BMP180;3260;52.438;13.502;2022-08-11T12:37:32;101631.00;;;49.60
6454;BMP180;3260;52.438;13.502;2022-08-11T12:40:08;101666.00;;;52.20
6454;BMP180;3260;52.438;13.502;2022-08-11T12:43:18;101661.00;;;53.00
6454;BMP180;3260;52.438;13.502;2022-08-11T12:46:14;101669.00;;;55.10
6454;BMP180;3260;52.438;13.502;2022-08-11T12:48:47;101669.00;;;51.70
6454;BMP180;3260;52.438;13.502;2022-08-11T12:51:36;101661.00;;;52.70
6454;BMP180;3260;52.438;13.502;2022-08-11T12:54:52;101650.00;;;54.40
6454;BMP180;3260;52.438;13.502;2022-08-11T12:57:31;101646.00;;;53.40
6454;BMP180;3260;52.438;13.502;2022-08-11T13:00:19;101641.00;;;51.50
6454;BMP180;3260;52.438;13.502;2022-08-11T13:03:09;101656.00;;;48.10
6454;BMP180;3260;52.438;13.502;2022-08-11T13:05:59;101636.00;;;51.00
6454;BMP180;3260;52.438;13.502;2022-08-11T13:08:32;101627.00;;;54.50
6454;BMP180;3260;52.438;13.502;2022-08-11T13:11:02;101634.00;;;54.50
6454;BMP180;3260;52.438;13.502;2022-08-11T13:13:51;101630.00;;;55.10
6454;BMP180;3260;52.438;13.502;2022-08-11T13:16:29;101628.00;;;57.00
6454;BMP180;3260;52.438;13.502;2022-08-11T13:18:59;101634.00;;;55.50
6454;BMP180;3260;52.438;13.502;2022-08-11T13:21:29;101601.00;;;57.20
6454;BMP180;3260;52.438;13.502;2022-08-11T13:23:59;101626.00;;;58.00
6454;BMP180;3260;52.438;13.502;2022-08-11T13:26:35;101620.00;;;58.30
6454;BMP180;3260;52.438;13.502;2022-08-11T13:29:22;101620.00;;;56.70
6454;BMP180;3260;52.438;13.502;2022-08-11T13:31:54;101627.00;;;58.70
6454;BMP180;3260;52.438;13.502;2022-08-11T13:34:25;101615.00;;;59.90
6454;BMP180;3260;52.438;13.502;2022-08-11T13:36:56;101618.00;;;59.50
6454;BMP180;3260;52.438;13.502;2022-08-11T13:39:29;101617.00;;;59.50
6454;BMP180;3260;52.438;13.502;2022-08-11T13:42:00;101606.00;;;60.50
6454;BMP180;3260;52.438;13.502;2022-08-11T13:44:34;101617.00;;;58.50
6454;BMP180;3260;52.438;13.502;2022-08-11T13:47:07;101607.00;;;56.50
6454;BMP180;3260;52.438;13.502;2022-08-11T13:49:39;101602.00;;;57.30
6454;BMP180;3260;52.438;13.502;2022-08-11T13:52:11;101599.00;;;59.00
6454;BMP180;3260;52.438;13.502;2022-08-11T13:54:42;101608.00;;;58.60
6454;BMP180;3260;52.438;13.502;2022-08-11T13:57:12;101598.00;;;60.70
6454;BMP180;3260;52.438;13.502;2022-08-11T14:00:06;101592.00;;;61.40
6454;BMP180;3260;52.438;13.502;2022-08-11T14:02:55;101603.00;;;61.80
6454;BMP180;3260;52.438;13.502;2022-08-11T14:05:28;101599.00;;;60.00
6454;BMP180;3260;52.438;13.502;2022-08-11T14:08:01;101595.00;;;59.00
6454;BMP180;3260;52.438;13.502;2022-08-11T14:10:33;101596.00;;;59.80
6454;BMP180;3260;52.438;13.502;2022-08-11T14:13:06;101584.00;;;61.10
6454;BMP180;3260;52.438;13.502;2022-08-11T14:16:00;101585.00;;;61.00
6454;BMP180;3260;52.438;13.502;2022-08-11T14:18:32;101583.00;;;62.00
6454;BMP180;3260;52.438;13.502;2022-08-11T14:21:04;101579.00;;;62.20
6454;BMP180;3260;52.438;13.502;2022-08-11T14:23:53;101585.00;;;60.50
6454;BMP180;3260;52.438;13.502;2022-08-11T14:26:28;101582.00;;;59.70
6454;BMP180;3260;52.438;13.502;2022-08-11T14:29:07;101581.00;;;59.90
6454;BMP180;3260;52.438;13.502;2022-08-11T14:31:43;101578.00;;;58.40
6454;BMP180;3260;52.438;13.502;2022-08-11T14:34:13;101565.00;;;59.50
6454;BMP180;3260;52.438;13.502;2022-08-11T14:36:44;101580.00;;;59.70
6454;BMP180;3260;52.438;13.502;2022-08-11T14:39:16;101574.00;;;60.90
6454;BMP180;3260;52.438;13.502;2022-08-11T14:41:49;101582.00;;;59.50
6454;BMP180;3260;52.438;13.502;2022-08-11T14:44:43;101580.00;;;58.80
6454;BMP180;3260;52.438;13.502;2022-08-11T14:47:34;101581.00;;;58.10
6454;BMP180;3260;52.438;13.502;2022-08-11T14:50:05;101575.00;;;59.70
6454;BMP180;3260;52.438;13.502;2022-08-11T14:52:48;101574.00;;;58.90
6454;BMP180;3260;52.438;13.502;2022-08-11T14:55:18;101578.00;;;60.10
6454;BMP180;3260;52.438;13.502;2022-08-11T14:58:08;101566.00;;;60.70
6454;BMP180;3260;52.438;13.502;2022-08-11T15:00:38;101573.00;;;60.40
6454;BMP180;3260;52.438;13.502;2022-08-11T15:03:12;101574.00;;;59.90
6454;BMP180;3260;52.438;13.502;2022-08-11T15:05:45;101562.00;;;59.40
6454;BMP180;3260;52.438;13.502;2022-08-11T15:08:28;101567.00;;;59.30
6454;BMP180;3260;52.438;13.502;2022-08-11T15:11:21;101563.00;;;58.70
6454;BMP180;3260;52.438;13.502;2022-08-11T15:14:09;101566.00;;;58.40
6454;BMP180;3260;52.438;13.502;2022-08-11T15:16:42;101556.00;;;58.80
6454;BMP180;3260;52.438;13.502;2022-08-11T15:19:31;101561.00;;;58.90
6454;BMP180;3260;52.438;13.502;2022-08-11T15:22:07;101562.00;;;58.70
6454;BMP180;3260;52.438;13.502;2022-08-11T15:24:56;101560.00;;;58.60
6454;BMP180;3260;52.438;13.502;2022-08-11T15:27:28;101550.00;;;59.50
6454;BMP180;3260;52.438;13.502;2022-08-11T15:30:16;101553.00;;;58.80
6454;BMP180;3260;52.438;13.502;2022-08-11T15:33:08;101549.00;;;58.30
6454;BMP180;3260;52.438;13.502;2022-08-11T15:35:59;101546.00;;;60.20
6454;BMP180;3260;52.438;13.502;2022-08-11T15:38:53;101541.00;;;58.00
6454;BMP180;3260;52.438;13.502;2022-08-11T15:41:32;101542.00;;;57.90
6454;BMP180;3260;52.438;13.502;2022-08-11T15:44:29;101542.00;;;58.40
6454;BMP180;3260;52.438;13.502;2022-08-11T15:47:37;101544.00;;;58.90
6454;BMP180;3260;52.438;13.502;2022-08-11T15:50:14;101544.00;;;58.30
6454;BMP180;3260;52.438;13.502;2022-08-11T15:52:51;101540.00;;;57.60
6454;BMP180;3260;52.438;13.502;2022-08-11T15:55:21;101532.00;;;57.70
6454;BMP180;3260;52.438;13.502;2022-08-11T15:57:52;101542.00;;;58.60
6454;BMP180;3260;52.438;13.502;2022-08-11T16:00:42;101538.00;;;56.10
6454;BMP180;3260;52.438;13.502;2022-08-11T16:03:46;101536.00;;;57.00
6454;BMP180;3260;52.438;13.502;2022-08-11T16:06:39;101519.00;;;55.70
6454;BMP180;3260;52.438;13.502;2022-08-11T16:09:24;101529.00;;;56.10
6454;BMP180;3260;52.438;13.502;2022-08-11T16:12:03;101532.00;;;55.90
6454;BMP180;3260;52.438;13.502;2022-08-11T16:14:36;101530.00;;;55.40
6454;BMP180;3260;52.438;13.502;2022-08-11T16:17:27;101526.00;;;55.00
6454;BMP180;3260;52.438;13.502;2022-08-11T16:19:59;101524.00;;;56.10
6454;BMP180;3260;52.438;13.502;2022-08-11T16:22:33;101524.00;;;55.50
6454;BMP180;3260;52.438;13.502;2022-08-11T16:25:10;101526.00;;;56.10
6454;BMP180;3260;52.438;13.502;2022-08-11T16:28:03;101525.00;;;55.20
6454;BMP180;3260;52.438;13.502;2022-08-11T16:30:33;101525.00;;;54.10
6454;BMP180;3260;52.438;13.502;2022-08-11T16:33:03;101520.00;;;54.60
6454;BMP180;3260;52.438;13.502;2022-08-11T16:35:53;101524.00;;;53.80
6454;BMP180;3260;52.438;13.502;2022-08-11T16:38:41;101532.00;;;52.30
6454;BMP180;3260;52.438;13.502;2022-08-11T16:41:16;101524.00;;;51.80
6454;BMP180;3260;52.438;13.502;2022-08-11T16:44:08;101530.00;;;50.70
6454;BMP180;3260;52.438;13.502;2022-08-11T16:47:05;101527.00;;;49.90
6454;BMP180;3260;52.438;13.502;2022-08-11T16:49:37;101528.00;;;51.00
6454;BMP180;3260;52.438;13.502;2022-08-11T16:52:06;101528.00;;;50.80
6454;BMP180;3260;52.438;13.502;2022-08-11T16:54:39;101519.00;;;50.00
6454;BMP180;3260;52.438;13.502;2022-08-11T16:57:17;101522.00;;;48.70
6454;BMP180;3260;52.438;13.502;2022-08-11T17:00:12;101519.00;;;46.60
6454;BMP180;3260;52.438;13.502;2022-08-11T17:02:44;101521.00;;;46.70
6454;BMP180;3260;52.438;13.502;2022-08-11T17:05:34;101512.00;;;45.40
6454;BMP180;3260;52.438;13.502;2022-08-11T17:08:29;101506.00;;;43.30
6454;BMP180;3260;52.438;13.502;2022-08-11T17:11:27;101516.00;;;43.80
6454;BMP180;3260;52.438;13.502;2022-08-11T17:14:21;101507.00;;;42.60
6454;BMP180;3260;52.438;13.502;2022-08-11T17:17:06;101509.00;;;40.00
6454;BMP180;3260;52.438;13.502;2022-08-11T17:19:44;101508.00;;;38.90
6454;BMP180;3260;52.438;13.502;2022-08-11T17:22:35;101503.00;;;38.70
6454;BMP180;3260;52.438;13.502;2022-08-11T17:25:24;101507.00;;;38.10
6454;BMP180;3260;52.438;13.502;2022-08-11T17:27:55;101509.00;;;36.60
6454;BMP180;3260;52.438;13.502;2022-08-11T17:30:26;101503.00;;;36.30
6454;BMP180;3260;52.438;13.502;2022-08-11T17:33:17;101507.00;;;36.00
6454;BMP180;3260;52.438;13.502;2022-08-11T17:36:05;101498.00;;;36.40
6454;BMP180;3260;52.438;13.502;2022-08-11T17:38:34;101506.00;;;36.70
6454;BMP180;3260;52.438;13.502;2022-08-11T17:41:04;101508.00;;;37.00
6454;BMP180;3260;52.438;13.502;2022-08-11T17:43:52;101511.00;;;37.10
6454;BMP180;3260;52.438;13.502;2022-08-11T17:46:41;101499.00;;;36.90
6454;BMP180;3260;52.438;13.502;2022-08-11T17:49:45;101506.00;;;36.20
6454;BMP180;3260;52.438;13.502;2022-08-11T17:52:14;101505.00;;;35.20
6454;BMP180;3260;52.438;13.502;2022-08-11T17:55:03;101504.00;;;34.50
6454;BMP180;3260;52.438;13.502;2022-08-11T17:58:09;101501.00;;;33.50
6454;BMP180;3260;52.438;13.502;2022-08-11T18:00:57;101493.00;;;32.70
6454;BMP180;3260;52.438;13.502;2022-08-11T18:03:39;101494.00;;;32.60
6454;BMP180;3260;52.438;13.502;2022-08-11T18:06:27;101500.00;;;31.70
6454;BMP180;3260;52.438;13.502;2022-08-11T18:09:04;101500.00;;;31.60
6454;BMP180;3260;52.438;13.502;2022-08-11T18:11:53;101505.00;;;31.00
6454;BMP180;3260;52.438;13.502;2022-08-11T18:14:46;101505.00;;;30.50
6454;BMP180;3260;52.438;13.502;2022-08-11T18:17:34;101506.00;;;30.30
6454;BMP180;3260;52.438;13.502;2022-08-11T18:20:22;101506.00;;;29.60
6454;BMP180;3260;52.438;13.502;2022-08-11T18:23:18;101506.00;;;29.40
6454;BMP180;3260;52.438;13.502;2022-08-11T18:26:18;101509.00;;;29.10
6454;BMP180;3260;52.438;13.502;2022-08-11T18:29:06;101506.00;;;28.80
6454;BMP180;3260;52.438;13.502;2022-08-11T18:31:56;101509.00;;;28.40
6454;BMP180;3260;52.438;13.502;2022-08-11T18:34:51;101510.00;;;27.70
6454;BMP180;3260;52.438;13.502;2022-08-11T18:37:46;101514.00;;;27.70
6454;BMP180;3260;52.438;13.502;2022-08-11T18:40:35;101518.00;;;27.40
6454;BMP180;3260;52.438;13.502;2022-08-11T18:43:23;101512.00;;;27.10
6454;BMP180;3260;52.438;13.502;2022-08-11T18:46:14;101517.00;;;27.10
6454;BMP180;3260;52.438;13.502;2022-08-11T18:49:09;101521.00;;;27.00
6454;BMP180;3260;52.438;13.502;2022-08-11T18:52:18;101512.00;;;26.60
6454;BMP180;3260;52.438;13.502;2022-08-11T18:55:10;101520.00;;;26.50
6454;BMP180;3260;52.438;13.502;2022-08-11T18:58:03;101522.00;;;26.60
6454;BMP180;3260;52.438;13.502;2022-08-11T19:00:53;101509.00;;;26.10
6454;BMP180;3260;52.438;13.502;2022-08-11T19:03:43;101507.00;;;26.00
6454;BMP180;3260;52.438;13.502;2022-08-11T19:06:38;101518.00;;;25.70
6454;BMP180;3260;52.438;13.502;2022-08-11T19:09:27;101512.00;;;25.80
6454;BMP180;3260;52.438;13.502;2022-08-11T19:12:16;101517.00;;;25.60
6454;BMP180;3260;52.438;13.502;2022-08-11T19:15:04;101519.00;;;25.50
6454;BMP180;3260;52.438;13.502;2022-08-11T19:17:52;101524.00;;;25.20
6454;BMP180;3260;52.438;13.502;2022-08-11T19:20:42;101517.00;;;25.50
6454;BMP180;3260;52.438;13.502;2022-08-11T19:23:35;101523.00;;;25.50
6454;BMP180;3260;52.438;13.502;2022-08-11T19:26:23;101518.00;;;25.10
6454;BMP180;3260;52.438;13.502;2022-08-11T19:29:12;101515.00;;;24.50
6454;BMP180;3260;52.438;13.502;2022-08-11T19:32:20;101516.00;;;24.40
6454;BMP180;3260;52.438;13.502;2022-08-11T19:35:08;101515.00;;;24.50
6454;BMP180;3260;52.438;13.502;2022-08-11T19:37:55;101505.00;;;24.10
6454;BMP180;3260;52.438;13.502;2022-08-11T19:40:44;101500.00;;;24.30
6454;BMP180;3260;52.438;13.502;2022-08-11T19:43:32;101500.00;;;23.90
6454;BMP180;3260;52.438;13.502;2022-08-11T19:46:23;101507.00;;;24.30
6454;BMP180;3260;52.438;13.502;2022-08-11T19:49:11;101501.00;;;24.10
6454;BMP180;3260;52.438;13.502;2022-08-11T19:51:58;101509.00;;;24.00
6454;BMP180;3260;52.438;13.502;2022-08-11T19:54:45;101503.00;;;24.10
6454;BMP180;3260;52.438;13.502;2022-08-11T19:57:35;101506.00;;;24.30